createdAt,value
2018-03-28T00:02:11.713Z,84.70
2018-03-28T00:04:38.278Z,84.90
2018-03-28T00:07:04.830Z,85.00
2018-03-28T00:09:31.802Z,85.60
2018-03-28T00:11:58.372Z,85.60
2018-03-28T00:14:24.903Z,85.90
2018-03-28T00:16:51.524Z,86.50
2018-03-28T00:19:18.474Z,87.40
2018-03-28T00:21:45.384Z,87.70
2018-03-28T00:24:11.975Z,87.70
2018-03-28T00:26:39.050Z,88.50
2018-03-28T00:29:05.949Z,88.20
2018-03-28T00:31:32.519Z,88.20
2018-03-28T00:33:59.097Z,88.00
2018-03-28T00:36:25.646Z,88.50
2018-03-28T00:38:52.582Z,89.40
2018-03-28T00:41:19.150Z,89.40
2018-03-28T00:43:46.062Z,89.20
2018-03-28T00:46:12.626Z,89.20
2018-03-28T00:48:39.200Z,89.80
2018-03-28T00:51:18.351Z,90.70
2018-03-28T00:53:44.917Z,90.70
2018-03-28T00:56:11.449Z,90.70
2018-03-28T00:58:38.050Z,90.70
2018-03-28T01:01:04.638Z,91.20
2018-03-28T01:03:31.538Z,90.50
2018-03-28T01:05:58.105Z,90.50
2018-03-28T01:08:24.667Z,90.70
2018-03-28T01:10:51.202Z,91.00
2018-03-28T01:13:18.114Z,90.60
2018-03-28T01:15:44.679Z,90.80
2018-03-28T01:18:11.215Z,90.90
2018-03-28T01:20:37.831Z,91.00
2018-03-28T01:23:04.765Z,91.10
2018-03-28T01:25:31.306Z,91.10
2018-03-28T01:27:57.935Z,91.20
2018-03-28T01:30:24.508Z,91.10
2018-03-28T01:32:51.046Z,91.30
2018-03-28T01:35:17.661Z,90.70
2018-03-28T01:37:44.229Z,90.90
2018-03-28T01:40:10.757Z,90.70
2018-03-28T01:42:37.329Z,91.00
2018-03-28T01:45:03.926Z,90.90
2018-03-28T01:47:30.473Z,90.80
2018-03-28T01:49:57.041Z,91.00
2018-03-28T01:52:23.618Z,91.50
2018-03-28T01:54:50.165Z,91.80
2018-03-28T01:57:16.730Z,91.60
2018-03-28T01:59:43.293Z,91.30
2018-03-28T02:02:09.849Z,91.60
2018-03-28T02:04:36.418Z,91.40
2018-03-28T02:07:03.069Z,91.90
2018-03-28T02:09:29.614Z,92.00
2018-03-28T02:11:56.191Z,92.20
2018-03-28T02:14:22.768Z,92.10
2018-03-28T02:16:49.699Z,91.80
2018-03-28T02:19:16.339Z,91.80
2018-03-28T02:21:42.873Z,91.80
2018-03-28T02:24:09.423Z,92.00
2018-03-28T02:26:36.004Z,92.10
2018-03-28T02:29:02.630Z,92.00
2018-03-28T02:31:29.182Z,91.90
2018-03-28T02:33:55.757Z,92.50
2018-03-28T02:36:22.718Z,92.60
2018-03-28T02:38:49.627Z,92.80
2018-03-28T02:41:16.218Z,92.80
2018-03-28T02:43:50.103Z,92.00
2018-03-28T02:46:16.677Z,92.00
2018-03-28T02:48:43.289Z,91.90
2018-03-28T02:51:09.830Z,91.90
2018-03-28T02:53:36.443Z,92.00
2018-03-28T02:56:03.396Z,92.50
2018-03-28T02:58:29.955Z,92.50
2018-03-28T03:00:56.534Z,92.50
2018-03-28T03:03:23.129Z,92.50
2018-03-28T03:05:49.726Z,92.50
2018-03-28T03:08:16.306Z,92.00
2018-03-28T03:10:42.873Z,92.30
2018-03-28T03:13:09.776Z,92.90
2018-03-28T03:15:36.345Z,92.90
2018-03-28T03:18:02.962Z,93.20
2018-03-28T03:20:29.501Z,93.30
2018-03-28T03:22:56.057Z,93.40
2018-03-28T03:25:22.621Z,93.10
2018-03-28T03:27:49.184Z,93.10
2018-03-28T03:30:15.766Z,93.20
2018-03-28T03:32:42.709Z,93.40
2018-03-28T03:35:09.240Z,93.40
2018-03-28T03:37:35.818Z,93.80
2018-03-28T03:40:02.785Z,94.10
2018-03-28T03:42:29.734Z,93.90
2018-03-28T03:44:56.666Z,94.00
2018-03-28T03:47:23.217Z,94.00
2018-03-28T03:49:49.786Z,94.00
2018-03-28T03:52:16.734Z,93.90
2018-03-28T03:54:43.642Z,93.90
2018-03-28T03:57:10.213Z,93.90
2018-03-28T03:59:36.834Z,94.10
2018-03-28T04:02:03.370Z,94.40
2018-03-28T04:04:29.979Z,95.20
2018-03-28T04:06:56.917Z,96.10
2018-03-28T04:09:23.466Z,96.10
2018-03-28T04:11:50.040Z,96.20
2018-03-28T04:14:17.002Z,96.70
2018-03-28T04:16:43.922Z,96.80
2018-03-28T04:19:10.533Z,96.80
2018-03-28T04:21:37.102Z,96.90
2018-03-28T04:24:03.657Z,97.00
2018-03-28T04:26:30.250Z,97.10
2018-03-28T04:28:57.217Z,96.70
2018-03-28T04:31:23.785Z,96.70
2018-03-28T04:33:50.354Z,96.80
2018-03-28T04:36:16.933Z,96.80
2018-03-28T04:38:43.841Z,96.60
2018-03-28T04:41:10.434Z,96.60
2018-03-28T04:43:37.025Z,96.60
2018-03-28T04:46:03.586Z,96.50
2018-03-28T04:48:30.161Z,96.60
2018-03-28T04:50:56.757Z,96.60
2018-03-28T04:53:23.281Z,96.70
2018-03-28T04:55:50.232Z,97.00
2018-03-28T04:58:17.182Z,97.00
2018-03-28T05:00:43.751Z,97.00
2018-03-28T05:03:10.321Z,97.10
2018-03-28T05:05:36.922Z,97.10
2018-03-28T05:08:03.469Z,97.00
2018-03-28T05:10:30.051Z,96.90
2018-03-28T05:12:56.629Z,96.80
2018-03-28T05:15:23.162Z,96.50
2018-03-28T05:17:49.761Z,96.30
2018-03-28T05:20:16.331Z,96.20
2018-03-28T05:22:43.238Z,96.10
2018-03-28T05:25:09.850Z,96.10
2018-03-28T05:27:36.414Z,96.00
2018-03-28T05:30:03.077Z,95.90
2018-03-28T05:32:29.666Z,96.00
2018-03-28T05:34:56.609Z,96.10
2018-03-28T05:37:23.156Z,96.10
2018-03-28T05:39:49.733Z,96.20
2018-03-28T05:42:16.665Z,96.50
2018-03-28T05:44:43.250Z,96.50
2018-03-28T05:47:09.817Z,96.20
2018-03-28T05:49:36.422Z,96.10
2018-03-28T05:52:03.330Z,96.10
2018-03-28T05:54:29.896Z,96.10
2018-03-28T05:56:56.461Z,95.90
2018-03-28T05:59:23.000Z,95.90
2018-03-28T06:01:49.581Z,95.90
2018-03-28T06:04:16.525Z,95.70
2018-03-28T06:06:43.473Z,95.50
2018-03-28T06:09:10.427Z,95.30
2018-03-28T06:11:37.389Z,94.70
2018-03-28T06:14:04.317Z,94.70
2018-03-28T06:16:30.894Z,94.70
2018-03-28T06:18:57.842Z,94.40
2018-03-28T06:21:24.755Z,94.60
2018-03-28T06:23:51.342Z,94.60
2018-03-28T06:26:17.933Z,94.60
2018-03-28T06:28:44.502Z,94.50
2018-03-28T06:31:11.079Z,93.90
2018-03-28T06:33:37.658Z,93.90
2018-03-28T06:36:04.225Z,94.10
2018-03-28T06:38:30.812Z,93.90
2018-03-28T06:40:58.301Z,93.80
2018-03-28T06:43:24.840Z,93.50
2018-03-28T06:45:51.814Z,93.40
2018-03-28T06:48:18.762Z,93.30
2018-03-28T06:50:45.674Z,93.10
2018-03-28T06:53:12.274Z,93.20
2018-03-28T06:55:39.217Z,93.20
2018-03-28T06:58:05.754Z,93.20
2018-03-28T07:00:32.714Z,93.30
2018-03-28T07:02:59.320Z,93.30
2018-03-28T07:05:25.905Z,92.90
2018-03-28T07:07:52.870Z,92.70
2018-03-28T07:10:19.434Z,92.70
2018-03-28T07:12:46.406Z,92.30
2018-03-28T07:15:12.985Z,92.30
2018-03-28T07:17:39.548Z,92.30
2018-03-28T07:20:06.098Z,92.50
2018-03-28T07:22:32.678Z,92.40
2018-03-28T07:24:59.624Z,91.80
2018-03-28T07:27:26.218Z,91.80
2018-03-28T07:29:52.859Z,91.30
2018-03-28T07:32:19.426Z,91.20
2018-03-28T07:34:45.962Z,91.30
2018-03-28T07:37:12.546Z,91.40
2018-03-28T07:39:39.112Z,91.00
2018-03-28T07:42:05.841Z,90.60
2018-03-28T07:44:32.414Z,90.60
2018-03-28T07:46:58.998Z,90.50
2018-03-28T07:49:25.549Z,90.30
2018-03-28T07:51:52.153Z,89.80
2018-03-28T07:54:19.098Z,89.10
2018-03-28T07:56:45.638Z,89.10
2018-03-28T07:59:12.223Z,89.40
2018-03-28T08:01:38.834Z,88.80
2018-03-28T08:04:05.389Z,88.50
2018-03-28T08:06:31.977Z,88.10
2018-03-28T08:08:58.566Z,88.40
2018-03-28T08:11:25.101Z,88.60
2018-03-28T08:13:51.681Z,87.90
2018-03-28T08:16:18.251Z,88.10
2018-03-28T08:18:45.187Z,87.20
2018-03-28T08:21:11.761Z,87.20
2018-03-28T08:23:38.349Z,86.50
2018-03-28T08:26:04.904Z,86.00
2018-03-28T08:28:31.509Z,85.50
2018-03-28T08:30:58.482Z,83.10
2018-03-28T08:33:25.024Z,83.10
2018-03-28T08:35:51.610Z,82.80
2018-03-28T08:38:18.195Z,82.90
2018-03-28T08:40:45.122Z,80.20
2018-03-28T08:43:11.721Z,80.20
2018-03-28T08:45:38.294Z,80.80
2018-03-28T08:48:04.842Z,77.40
2018-03-28T08:50:31.421Z,77.70
2018-03-28T08:52:57.998Z,77.20
2018-03-28T08:55:24.538Z,77.70
2018-03-28T08:57:51.126Z,76.80
2018-03-28T09:00:17.714Z,77.80
2018-03-28T09:02:44.249Z,77.80
2018-03-28T09:05:10.857Z,77.50
2018-03-28T09:07:37.449Z,77.90
2018-03-28T09:10:04.017Z,78.20
2018-03-28T09:12:30.965Z,76.40
2018-03-28T09:14:57.927Z,75.50
2018-03-28T09:17:24.842Z,75.60
2018-03-28T09:19:51.422Z,75.60
2018-03-28T09:22:18.034Z,74.70
2018-03-28T09:24:44.586Z,73.50
2018-03-28T09:27:11.170Z,72.40
2018-03-28T09:29:38.178Z,74.60
2018-03-28T09:32:04.750Z,74.60
2018-03-28T09:34:31.326Z,73.00
2018-03-28T09:36:58.310Z,71.40
2018-03-28T09:39:24.850Z,71.40
2018-03-28T09:41:51.429Z,71.90
2018-03-28T09:44:18.017Z,70.60
2018-03-28T09:46:44.937Z,72.00
2018-03-28T09:49:11.504Z,72.00
2018-03-28T09:51:38.093Z,71.00
2018-03-28T09:54:04.642Z,72.10
2018-03-28T09:56:31.229Z,71.60
2018-03-28T09:58:57.817Z,70.40
2018-03-28T10:01:29.662Z,71.50
2018-03-28T10:04:02.224Z,71.50
2018-03-28T10:06:28.813Z,72.40
2018-03-28T10:08:55.371Z,72.20
2018-03-28T10:11:22.323Z,71.10
2018-03-28T10:13:49.274Z,71.00
2018-03-28T10:16:15.838Z,71.00
2018-03-28T10:18:42.434Z,72.00
2018-03-28T10:21:09.014Z,73.00
2018-03-28T10:23:35.946Z,74.00
2018-03-28T10:26:02.537Z,74.00
2018-03-28T10:28:29.530Z,73.40
2018-03-28T10:30:56.098Z,73.40
2018-03-28T10:33:22.678Z,72.80
2018-03-28T10:35:49.735Z,72.40
2018-03-28T10:38:16.339Z,72.40
2018-03-28T10:40:42.964Z,73.10
2018-03-28T10:43:09.542Z,73.50
2018-03-28T10:45:36.212Z,72.60
2018-03-28T10:48:02.826Z,73.20
2018-03-28T10:50:29.420Z,73.70
2018-03-28T10:52:55.969Z,73.80
2018-03-28T10:55:22.951Z,74.70
2018-03-28T10:57:49.906Z,75.40
2018-03-28T11:00:16.826Z,74.90
2018-03-28T11:02:43.414Z,74.90
2018-03-28T11:05:09.998Z,75.00
2018-03-28T11:07:36.551Z,74.30
2018-03-28T11:10:03.206Z,74.30
2018-03-28T11:12:29.789Z,75.00
2018-03-28T11:14:56.334Z,75.00
2018-03-28T11:17:23.311Z,75.30
2018-03-28T11:19:49.895Z,75.30
2018-03-28T11:22:16.449Z,75.80
2018-03-28T11:24:43.043Z,75.30
2018-03-28T11:27:10.009Z,75.80
2018-03-28T11:29:36.599Z,75.80
2018-03-28T11:32:03.204Z,74.80
2018-03-28T11:34:30.168Z,72.90
2018-03-28T11:36:56.801Z,72.90
2018-03-28T11:39:23.765Z,72.80
2018-03-28T11:41:50.699Z,73.30
2018-03-28T11:44:17.246Z,73.30
2018-03-28T11:46:43.831Z,74.20
2018-03-28T11:49:10.423Z,73.40
2018-03-28T11:51:36.989Z,73.70
2018-03-28T11:54:03.565Z,73.20
2018-03-28T11:56:30.201Z,73.70
2018-03-28T11:58:56.764Z,73.60
2018-03-28T12:01:23.349Z,74.30
2018-03-28T12:03:49.945Z,75.30
2018-03-28T12:06:16.853Z,75.60
2018-03-28T12:08:43.853Z,75.50
2018-03-28T12:11:10.814Z,75.30
2018-03-28T12:13:37.719Z,74.40
2018-03-28T12:16:04.347Z,74.40
2018-03-28T12:18:30.942Z,75.10
2018-03-28T12:20:57.493Z,75.50
2018-03-28T12:23:26.111Z,74.90
2018-03-28T12:25:52.701Z,75.50
2018-03-28T12:28:26.622Z,77.00
2018-03-28T12:30:53.289Z,79.00
2018-03-28T12:33:19.856Z,78.60
2018-03-28T12:35:46.500Z,78.30
2018-03-28T12:38:13.089Z,79.00
2018-03-28T12:40:39.666Z,79.00
2018-03-28T12:43:06.250Z,80.00
2018-03-28T12:45:32.822Z,78.90
2018-03-28T12:47:59.750Z,78.00
2018-03-28T12:50:26.356Z,78.00
2018-03-28T12:52:52.952Z,77.20
2018-03-28T12:55:20.585Z,75.70
2018-03-28T12:57:47.216Z,75.70
2018-03-28T13:00:13.858Z,75.30
2018-03-28T13:02:40.409Z,75.40
2018-03-28T13:05:07.061Z,75.60
2018-03-28T13:07:33.646Z,75.70
2018-03-28T13:10:00.216Z,75.40
2018-03-28T13:12:26.813Z,76.40
2018-03-28T13:14:53.402Z,76.40
2018-03-28T13:17:19.941Z,76.20
2018-03-28T13:19:46.522Z,75.40
2018-03-28T13:22:13.473Z,74.80
2018-03-28T13:24:40.419Z,74.20
2018-03-28T13:27:07.386Z,74.70
2018-03-28T13:29:34.382Z,73.90
2018-03-28T13:32:00.917Z,73.90
2018-03-28T13:34:27.519Z,73.80
2018-03-28T13:36:54.132Z,73.90
2018-03-28T13:39:20.680Z,74.40
2018-03-28T13:41:47.265Z,74.80
2018-03-28T13:44:14.242Z,74.80
2018-03-28T13:46:41.175Z,75.20
2018-03-28T13:49:07.821Z,75.20
2018-03-28T13:51:34.406Z,75.20
2018-03-28T13:54:00.973Z,75.60
2018-03-28T13:56:27.565Z,76.00
2018-03-28T13:58:54.161Z,75.90
2018-03-28T14:01:20.718Z,75.40
2018-03-28T14:03:47.309Z,75.60
2018-03-28T14:06:13.888Z,76.10
2018-03-28T14:08:40.811Z,75.70
2018-03-28T14:11:07.828Z,75.70
2018-03-28T14:13:34.410Z,75.70
2018-03-28T14:16:01.030Z,76.00
2018-03-28T14:18:27.625Z,74.90
2018-03-28T14:20:54.207Z,75.30
2018-03-28T14:23:20.764Z,75.80
2018-03-28T14:25:47.387Z,75.20
2018-03-28T14:28:14.358Z,76.00
2018-03-28T14:30:40.950Z,76.00
2018-03-28T14:33:07.556Z,75.30
2018-03-28T14:35:34.158Z,75.30
2018-03-28T14:38:00.701Z,75.70
2018-03-28T14:40:27.284Z,75.10
2018-03-28T14:42:54.588Z,74.30
2018-03-28T14:45:20.461Z,74.70
2018-03-28T14:47:47.420Z,75.60
2018-03-28T14:50:14.009Z,75.60
2018-03-28T14:52:40.569Z,75.70
2018-03-28T14:55:07.142Z,75.20
2018-03-28T14:57:33.742Z,75.10
2018-03-28T15:00:00.274Z,75.00
2018-03-28T15:02:27.226Z,76.30
2018-03-28T15:04:53.804Z,76.30
2018-03-28T15:07:20.354Z,75.80
2018-03-28T15:09:46.982Z,76.40
2018-03-28T15:12:13.583Z,76.80
2018-03-28T15:14:40.137Z,76.40
2018-03-28T15:17:06.786Z,76.70
2018-03-28T15:19:33.363Z,76.80
2018-03-28T15:22:00.286Z,76.80
2018-03-28T15:24:26.872Z,76.80
2018-03-28T15:26:53.453Z,76.10
2018-03-28T15:29:20.050Z,76.40
2018-03-28T15:31:47.054Z,76.70
2018-03-28T15:34:13.634Z,76.70
2018-03-28T15:36:40.191Z,78.20
2018-03-28T15:39:06.782Z,79.90
2018-03-28T15:41:33.353Z,80.00
2018-03-28T15:43:59.911Z,80.50
2018-03-28T15:46:26.519Z,80.80
2018-03-28T15:48:53.106Z,82.10
2018-03-28T15:51:19.674Z,82.80
2018-03-28T15:53:46.658Z,85.40
2018-03-28T15:56:13.597Z,85.60
2018-03-28T15:58:40.561Z,86.20
2018-03-28T16:01:07.213Z,86.20
2018-03-28T16:03:34.168Z,87.00
2018-03-28T16:06:01.101Z,87.50
2018-03-28T16:08:27.696Z,87.50
2018-03-28T16:10:54.306Z,87.60
2018-03-28T16:13:20.893Z,88.50
2018-03-28T16:15:47.494Z,89.10
2018-03-28T16:18:14.146Z,89.20
2018-03-28T16:20:40.709Z,90.00
2018-03-28T16:23:07.286Z,90.10
2018-03-28T16:25:33.869Z,90.40
2018-03-28T16:28:00.417Z,90.00
2018-03-28T16:30:27.042Z,90.30
2018-03-28T16:32:53.614Z,90.40
2018-03-28T16:35:20.165Z,90.40
2018-03-28T16:37:46.749Z,90.60
2018-03-28T16:40:13.685Z,90.30
2018-03-28T16:42:40.238Z,90.30
2018-03-28T16:45:06.838Z,90.90
2018-03-28T16:47:33.426Z,90.40
2018-03-28T16:50:00.012Z,90.40
2018-03-28T16:52:26.599Z,91.00
2018-03-28T16:54:53.170Z,90.90
2018-03-28T16:57:19.727Z,90.50
2018-03-28T16:59:46.310Z,90.60
2018-03-28T17:02:12.893Z,91.00
2018-03-28T17:04:39.458Z,91.20
2018-03-28T17:07:06.048Z,91.40
2018-03-28T17:09:33.013Z,92.30
2018-03-28T17:11:59.546Z,92.30
2018-03-28T17:14:26.497Z,92.30
2018-03-28T17:16:53.490Z,92.30
2018-03-28T17:19:20.038Z,92.30
2018-03-28T17:21:46.618Z,91.90
2018-03-28T17:24:13.197Z,92.10
2018-03-28T17:26:39.778Z,92.10
2018-03-28T17:29:06.357Z,92.40
2018-03-28T17:31:39.794Z,92.50
2018-03-28T17:34:06.737Z,92.30
2018-03-28T17:36:33.312Z,92.30
2018-03-28T17:39:00.230Z,93.00
2018-03-28T17:41:26.809Z,93.00
2018-03-28T17:43:53.751Z,93.20
2018-03-28T17:46:20.314Z,93.20
2018-03-28T17:48:47.266Z,93.30
2018-03-28T17:51:14.222Z,93.60
2018-03-28T17:53:41.130Z,93.90
2018-03-28T17:56:07.711Z,93.90
2018-03-28T17:58:34.286Z,94.10
2018-03-28T18:01:00.825Z,94.10
2018-03-28T18:03:27.845Z,93.50
2018-03-28T18:05:54.397Z,93.50
2018-03-28T18:08:20.950Z,93.20
2018-03-28T18:10:47.534Z,93.00
2018-03-28T18:13:14.118Z,92.80
2018-03-28T18:15:40.673Z,93.50
2018-03-28T18:18:07.259Z,94.10
2018-03-28T18:20:34.223Z,94.20
2018-03-28T18:23:00.774Z,94.20
2018-03-28T18:25:27.441Z,94.10
2018-03-28T18:27:54.010Z,93.90
2018-03-28T18:30:20.625Z,93.90
2018-03-28T18:32:47.197Z,94.30
2018-03-28T18:35:13.839Z,94.00
2018-03-28T18:37:40.422Z,93.90
2018-03-28T18:40:07.025Z,94.00
2018-03-28T18:42:33.607Z,94.10
2018-03-28T18:45:00.155Z,94.10
2018-03-28T18:47:26.741Z,94.10
2018-03-28T18:49:53.682Z,93.20
2018-03-28T18:52:20.597Z,93.10
2018-03-28T18:54:47.225Z,93.10
2018-03-28T18:57:13.845Z,93.20
2018-03-28T18:59:40.776Z,93.90
2018-03-28T19:02:07.361Z,93.90
2018-03-28T19:04:34.315Z,93.80
2018-03-28T19:07:01.234Z,93.90
2018-03-28T19:09:27.810Z,93.90
2018-03-28T19:11:54.768Z,94.10
2018-03-28T19:14:21.685Z,94.40
2018-03-28T19:16:49.297Z,94.40
2018-03-28T19:19:16.274Z,94.70
2018-03-28T19:21:42.818Z,94.60
2018-03-28T19:24:09.381Z,95.00
2018-03-28T19:26:35.973Z,95.30
2018-03-28T19:29:02.523Z,95.50
2018-03-28T19:31:29.137Z,95.70
2018-03-28T19:33:55.733Z,95.50
2018-03-28T19:36:22.665Z,95.40
2018-03-28T19:38:49.245Z,95.40
2018-03-28T19:41:17.236Z,94.70
2018-03-28T19:43:43.793Z,94.80
2018-03-28T19:46:11.374Z,94.40
2018-03-28T19:48:37.942Z,94.00
2018-03-28T19:51:04.528Z,94.30
2018-03-28T19:53:32.337Z,94.70
2018-03-28T19:55:58.950Z,94.60
2018-03-28T19:58:25.870Z,94.90
2018-03-28T20:00:52.442Z,94.90
2018-03-28T20:03:19.026Z,94.70
2018-03-28T20:05:45.933Z,94.40
2018-03-28T20:08:12.508Z,94.60
2018-03-28T20:10:39.444Z,95.00
2018-03-28T20:13:06.062Z,95.00
2018-03-28T20:15:32.718Z,94.70
2018-03-28T20:17:59.303Z,94.80
2018-03-28T20:20:26.259Z,94.70
2018-03-28T20:22:52.842Z,94.70
2018-03-28T20:25:19.432Z,94.70
2018-03-28T20:27:45.961Z,94.70
2018-03-28T20:30:12.546Z,95.10
2018-03-28T20:32:39.146Z,95.00
2018-03-28T20:35:07.346Z,95.40
2018-03-28T20:37:33.937Z,95.40
2018-03-28T20:40:00.929Z,94.80
2018-03-28T20:42:27.473Z,94.80
2018-03-28T20:44:54.054Z,94.40
2018-03-28T20:47:20.639Z,94.30
2018-03-28T20:49:47.637Z,94.40
2018-03-28T20:52:14.242Z,94.40
2018-03-28T20:54:41.193Z,94.30
2018-03-28T20:57:07.726Z,94.30
2018-03-28T20:59:34.295Z,94.00
2018-03-28T21:02:01.258Z,94.40
2018-03-28T21:04:28.189Z,94.50
2018-03-28T21:06:54.754Z,94.50
2018-03-28T21:09:21.810Z,94.80
2018-03-28T21:11:48.709Z,94.90
2018-03-28T21:14:16.223Z,94.90
2018-03-28T21:16:42.796Z,94.50
2018-03-28T21:19:09.710Z,94.60
2018-03-28T21:21:36.313Z,94.60
2018-03-28T21:24:03.011Z,94.20
2018-03-28T21:26:30.095Z,94.00
2018-03-28T21:28:57.045Z,93.70
2018-03-28T21:31:23.626Z,93.60
2018-03-28T21:33:50.210Z,92.80
2018-03-28T21:36:16.774Z,92.20
2018-03-28T21:38:43.350Z,92.10
2018-03-28T21:41:10.308Z,92.10
2018-03-28T21:43:36.928Z,92.10
2018-03-28T21:46:03.602Z,92.40
2018-03-28T21:48:30.523Z,92.40
2018-03-28T21:50:57.145Z,92.50
2018-03-28T21:53:23.725Z,92.40
2018-03-28T21:55:50.279Z,92.60
2018-03-28T21:58:16.852Z,92.70
2018-03-28T22:00:43.821Z,93.20
2018-03-28T22:03:10.735Z,93.30
2018-03-28T22:05:37.322Z,93.30
2018-03-28T22:08:03.917Z,93.30
2018-03-28T22:10:30.497Z,93.90
2018-03-28T22:12:57.447Z,94.30
2018-03-28T22:15:24.024Z,94.30
2018-03-28T22:17:50.966Z,94.40
2018-03-28T22:20:17.919Z,94.40
2018-03-28T22:22:44.875Z,94.60
2018-03-28T22:25:11.822Z,94.50
2018-03-28T22:27:38.407Z,94.50
2018-03-28T22:30:04.995Z,94.50
2018-03-28T22:32:31.569Z,94.60
2018-03-28T22:34:58.144Z,94.70
2018-03-28T22:37:24.709Z,94.50
2018-03-28T22:39:51.251Z,94.50
2018-03-28T22:42:17.868Z,94.60
2018-03-28T22:44:44.820Z,94.60
2018-03-28T22:47:11.378Z,94.60
2018-03-28T22:49:38.326Z,94.50
2018-03-28T22:52:05.258Z,94.30
2018-03-28T22:54:31.817Z,94.30
2018-03-28T22:56:58.388Z,94.10
2018-03-28T22:59:25.359Z,94.40
2018-03-28T23:01:51.897Z,94.40
2018-03-28T23:04:18.850Z,94.40
2018-03-28T23:06:45.442Z,94.40
2018-03-28T23:09:11.985Z,94.30
2018-03-28T23:11:38.555Z,94.30
2018-03-28T23:14:05.146Z,94.30
2018-03-28T23:16:31.722Z,93.90
2018-03-28T23:18:58.336Z,94.00
2018-03-28T23:21:25.327Z,93.70
2018-03-28T23:23:51.881Z,93.70
2018-03-28T23:26:18.449Z,93.50
2018-03-28T23:28:45.022Z,93.60
2018-03-28T23:31:11.967Z,93.50
2018-03-28T23:33:38.578Z,93.50
2018-03-28T23:36:05.153Z,93.40
2018-03-28T23:38:31.693Z,93.20
2018-03-28T23:40:58.267Z,93.20
2018-03-28T23:43:25.201Z,92.80
2018-03-28T23:45:51.743Z,92.80
2018-03-28T23:48:18.333Z,93.00
2018-03-28T23:50:45.278Z,92.70
2018-03-28T23:53:12.222Z,92.40
2018-03-28T23:55:38.843Z,92.40
2018-03-28T23:58:05.406Z,92.20
